Terminal Aerodrome Forecast
Issued by NWS Mt. Holly, NJ

Home | Current Version | Previous Version | Text Only | Print | Product List | Glossary On
Versions: 1 2 3 4 5 6 7 8 9 10 11 12 13 14 15 16 17
000
FTUS41 KPHI 241721
TAFABE
TAF
KABE 241721Z 2418/2518 22007KT P6SM SKC
     FM242300 19005KT P6SM SKC
     FM250400 VRB02KT P6SM SCT250
     FM251600 22008KT P6SM SCT050 BKN150=

USA.gov is the U.S. government's official web portal to all federal, state and local government web resources and services.